MV Moseldijk — PBWK — position and weather

sailwx.info

Track history (hours):
 
Tides and Currents Weather Stations Pressure Air Temp Water Temp Dewpoint Dewpoint Depression Visibility Wind Speed Wind Dir Waves Ship Positions

MV Moseldijk

Last reported at 2016-Apr-29 17:34 UTC. Time now 2016-Apr-29 17:48 UTC.
Position N 51°18' E 004°17'.

Length 90 m; draft 6.1 m.

Type: Cargo ship. MMSI: 246644000.

Date/timePositionNaut miles runAvg speedWind from/ knotsBaromVisibWave heightAir tempDewpointWater temp
2016-Apr-29 17:34N 51°18' E 004°17'5 5.1
2016-Apr-29 16:32N 51°14' E 004°23'0 0.0
2016-Apr-29 15:32N 51°14' E 004°23'0 0.0
2016-Apr-29 14:32N 51°14' E 004°23'0 0.1
2016-Apr-29 13:32N 51°14' E 004°22'0 0.0
2016-Apr-29 12:32N 51°14' E 004°22'1 0.8
2016-Apr-29 11:34N 51°14' E 004°24'8 8.0
2016-Apr-29 10:33N 51°07' E 004°18'4 3.7
2016-Apr-29 09:33N 51°04' E 004°22'4 4.0
2016-Apr-29 08:30N 50°60' E 004°22'2 2.2
2016-Apr-29 07:28N 50°58' E 004°24'1 1.2
2016-Apr-29 06:29N 50°57' E 004°25'0 0.0
2016-Apr-29 05:31N 50°57' E 004°25'0 0.0
2016-Apr-29 04:33N 50°57' E 004°25'0 0.0
2016-Apr-29 03:29N 50°57' E 004°25'0 0.0
2016-Apr-29 02:28N 50°57' E 004°25'0 0.0
2016-Apr-29 01:33N 50°57' E 004°25'0 0.0
2016-Apr-29 00:33N 50°57' E 004°25'0 0.0
2016-Apr-28 23:32N 50°57' E 004°25'0 0.0
2016-Apr-28 22:33N 50°57' E 004°25'0 0.0
2016-Apr-28 21:32N 50°57' E 004°25'0 0.0
2016-Apr-28 20:33N 50°57' E 004°25'0 0.0
2016-Apr-28 19:31N 50°57' E 004°25'0 0.0
2016-Apr-28 18:33N 50°57' E 004°25'0 0.0
2016-Apr-28 17:30N 50°57' E 004°25'0 0.0
2016-Apr-28 16:33N 50°57' E 004°25'0 0.0
2016-Apr-28 15:29N 50°57' E 004°25'0 0.0
2016-Apr-28 14:15N 50°57' E 004°25'0 0.0
2016-Apr-28 13:33N 50°57' E 004°25'0 0.0
2016-Apr-28 11:03N 50°57' E 004°25'0 0.0
2016-Apr-28 10:26N 50°57' E 004°25'0 0.0
2016-Apr-28 08:31N 50°57' E 004°25'0 0.0
2016-Apr-28 06:26N 50°57' E 004°25'0 0.0
2016-Apr-28 05:33N 50°57' E 004°25'0 0.0
2016-Apr-28 04:26N 50°57' E 004°25'0 0.0
2016-Apr-28 03:33N 50°57' E 004°25'0 0.0
2016-Apr-28 02:32N 50°57' E 004°25'0 0.0
2016-Apr-28 01:33N 50°57' E 004°25'0 0.0
2016-Apr-28 00:29N 50°57' E 004°25'0 0.0
2016-Apr-27 23:33N 50°57' E 004°25'0 0.0
2016-Apr-27 22:33N 50°57' E 004°25'0 0.0
2016-Apr-27 21:32N 50°57' E 004°25'0 0.0
2016-Apr-27 20:33N 50°57' E 004°25'0 0.0
2016-Apr-27 19:33N 50°57' E 004°25'0 0.0
2016-Apr-27 18:27N 50°57' E 004°25'0 0.0
2016-Apr-27 17:17N 50°57' E 004°25'0 0.0
2016-Apr-27 16:24N 50°57' E 004°25'0 0.0
2016-Apr-27 15:03N 50°57' E 004°25'0 0.0
2016-Apr-27 13:16N 50°57' E 004°25'0 0.0
2016-Apr-27 12:30N 50°57' E 004°25'0 0.0
2016-Apr-27 11:30N 50°57' E 004°25'1 0.7
2016-Apr-27 10:29N 50°57' E 004°24'3 2.9
2016-Apr-27 09:30N 50°60' E 004°22'1 1.5
2016-Apr-27 08:32N 51°01' E 004°22'3 2.7
2016-Apr-27 07:33N 51°04' E 004°22'0 0.5
2016-Apr-27 06:33N 51°04' E 004°22'4 3.5
2016-Apr-27 05:33N 51°07' E 004°18'6 6.4
2016-Apr-27 04:33N 51°13' E 004°23'8 7.6
2016-Apr-27 03:33N 51°19' E 004°16'9 9.1
2016-Apr-27 02:33N 51°23' E 004°03'7 7.5
2016-Apr-27 01:33N 51°21' E 003°51'1010.5
2016-Apr-27 00:33N 51°26' E 003°37'1110.7
2016-Apr-26 23:33N 51°24' E 003°20'1110.5
2016-Apr-26 22:33N 51°24' E 003°03'9 9.4
2016-Apr-26 21:33N 51°21' E 002°48'1110.1
2016-Apr-26 20:26N 51°22' E 002°30'9 9.9
2016-Apr-26 19:33N 51°18' E 002°18'1010.2
2016-Apr-26 18:33N 51°13' E 002°04'1110.8
2016-Apr-26 17:33N 51°08' E 001°49'1211.9
2016-Apr-26 16:33N 50°59' E 001°36'7111.6
2016-Apr-26 10:24N 50°18' E 000°04'  
Track history (hours):
 
Tides and Currents Weather Stations Pressure Air Temp Water Temp Dewpoint Dewpoint Depression Visibility Wind Speed Wind Dir Waves Ship Positions

MV Moseldijk

Last reported at 2016-Apr-29 17:34 UTC. Time now 2016-Apr-29 17:48 UTC.
Position N 51°18' E 004°17'.

Length 90 m; draft 6.1 m.

Type: Cargo ship. MMSI: 246644000.

Date/timePositionNaut miles runAvg speedWind from/ knotsBaromVisibWave heightAir tempDewpointWater temp
2016-Apr-29 17:34N 51°18' E 004°17'5 5.1
2016-Apr-29 16:32N 51°14' E 004°23'0 0.0
2016-Apr-29 15:32N 51°14' E 004°23'0 0.0
2016-Apr-29 14:32N 51°14' E 004°23'0 0.1
2016-Apr-29 13:32N 51°14' E 004°22'0 0.0
2016-Apr-29 12:32N 51°14' E 004°22'1 0.8
2016-Apr-29 11:34N 51°14' E 004°24'8 8.0
2016-Apr-29 10:33N 51°07' E 004°18'4 3.7
2016-Apr-29 09:33N 51°04' E 004°22'4 4.0
2016-Apr-29 08:30N 50°60' E 004°22'2 2.2
2016-Apr-29 07:28N 50°58' E 004°24'1 1.2
2016-Apr-29 06:29N 50°57' E 004°25'0 0.0
2016-Apr-29 05:31N 50°57' E 004°25'0 0.0
2016-Apr-29 04:33N 50°57' E 004°25'0 0.0
2016-Apr-29 03:29N 50°57' E 004°25'0 0.0
2016-Apr-29 02:28N 50°57' E 004°25'0 0.0
2016-Apr-29 01:33N 50°57' E 004°25'0 0.0
2016-Apr-29 00:33N 50°57' E 004°25'0 0.0
2016-Apr-28 23:32N 50°57' E 004°25'0 0.0
2016-Apr-28 22:33N 50°57' E 004°25'0 0.0
2016-Apr-28 21:32N 50°57' E 004°25'0 0.0
2016-Apr-28 20:33N 50°57' E 004°25'0 0.0
2016-Apr-28 19:31N 50°57' E 004°25'0 0.0
2016-Apr-28 18:33N 50°57' E 004°25'0 0.0
2016-Apr-28 17:30N 50°57' E 004°25'0 0.0
2016-Apr-28 16:33N 50°57' E 004°25'0 0.0
2016-Apr-28 15:29N 50°57' E 004°25'0 0.0
2016-Apr-28 14:15N 50°57' E 004°25'0 0.0
2016-Apr-28 13:33N 50°57' E 004°25'0 0.0
2016-Apr-28 11:03N 50°57' E 004°25'0 0.0
2016-Apr-28 10:26N 50°57' E 004°25'0 0.0
2016-Apr-28 08:31N 50°57' E 004°25'0 0.0
2016-Apr-28 06:26N 50°57' E 004°25'0 0.0
2016-Apr-28 05:33N 50°57' E 004°25'0 0.0
2016-Apr-28 04:26N 50°57' E 004°25'0 0.0
2016-Apr-28 03:33N 50°57' E 004°25'0 0.0
2016-Apr-28 02:32N 50°57' E 004°25'0 0.0
2016-Apr-28 01:33N 50°57' E 004°25'0 0.0
2016-Apr-28 00:29N 50°57' E 004°25'0 0.0
2016-Apr-27 23:33N 50°57' E 004°25'0 0.0
2016-Apr-27 22:33N 50°57' E 004°25'0 0.0
2016-Apr-27 21:32N 50°57' E 004°25'0 0.0
2016-Apr-27 20:33N 50°57' E 004°25'0 0.0
2016-Apr-27 19:33N 50°57' E 004°25'0 0.0
2016-Apr-27 18:27N 50°57' E 004°25'0 0.0
2016-Apr-27 17:17N 50°57' E 004°25'0 0.0
2016-Apr-27 16:24N 50°57' E 004°25'0 0.0
2016-Apr-27 15:03N 50°57' E 004°25'0 0.0
2016-Apr-27 13:16N 50°57' E 004°25'0 0.0
2016-Apr-27 12:30N 50°57' E 004°25'0 0.0
2016-Apr-27 11:30N 50°57' E 004°25'1 0.7
2016-Apr-27 10:29N 50°57' E 004°24'3 2.9
2016-Apr-27 09:30N 50°60' E 004°22'1 1.5
2016-Apr-27 08:32N 51°01' E 004°22'3 2.7
2016-Apr-27 07:33N 51°04' E 004°22'0 0.5
2016-Apr-27 06:33N 51°04' E 004°22'4 3.5
2016-Apr-27 05:33N 51°07' E 004°18'6 6.4
2016-Apr-27 04:33N 51°13' E 004°23'8 7.6
2016-Apr-27 03:33N 51°19' E 004°16'9 9.1
2016-Apr-27 02:33N 51°23' E 004°03'7 7.5
2016-Apr-27 01:33N 51°21' E 003°51'1010.5
2016-Apr-27 00:33N 51°26' E 003°37'1110.7
2016-Apr-26 23:33N 51°24' E 003°20'1110.5
2016-Apr-26 22:33N 51°24' E 003°03'9 9.4
2016-Apr-26 21:33N 51°21' E 002°48'1110.1
2016-Apr-26 20:26N 51°22' E 002°30'9 9.9
2016-Apr-26 19:33N 51°18' E 002°18'1010.2
2016-Apr-26 18:33N 51°13' E 002°04'1110.8
2016-Apr-26 17:33N 51°08' E 001°49'1211.9
2016-Apr-26 16:33N 50°59' E 001°36'7111.6
2016-Apr-26 10:24N 50°18' E 000°04'  

Dump ship's entire track history